createdAt,value
2023-01-26T00:02:13.779Z,1.25
2023-01-26T00:07:21.232Z,1.28
2023-01-26T00:12:28.874Z,1.31
2023-01-26T00:17:38.718Z,1.32
2023-01-26T00:22:46.639Z,1.34
2023-01-26T00:27:55.826Z,1.38
2023-01-26T00:33:03.981Z,1.40
2023-01-26T00:38:12.770Z,1.42
2023-01-26T00:43:21.804Z,1.45
2023-01-26T00:48:32.612Z,1.47
2023-01-26T00:53:42.053Z,1.49
2023-01-26T00:58:50.555Z,1.52
2023-01-26T01:03:58.706Z,1.53
2023-01-26T01:09:08.146Z,1.55
2023-01-26T01:14:16.517Z,1.58
2023-01-26T01:19:25.036Z,1.59
2023-01-26T01:24:34.852Z,1.61
2023-01-26T01:29:43.420Z,1.63
2023-01-26T01:34:52.769Z,1.65
2023-01-26T01:40:01.526Z,1.66
2023-01-26T01:45:45.638Z,1.67
2023-01-26T01:50:58.490Z,1.68
2023-01-26T01:56:13.306Z,1.69
2023-01-26T02:01:21.646Z,1.70
2023-01-26T02:06:36.908Z,1.71
2023-01-26T02:11:48.415Z,1.72
2023-01-26T02:16:57.278Z,1.73
2023-01-26T02:22:12.866Z,1.73
2023-01-26T02:27:20.253Z,1.75
2023-01-26T02:32:28.901Z,1.75
2023-01-26T02:37:37.536Z,1.75
2023-01-26T02:42:45.887Z,1.75
2023-01-26T02:47:55.042Z,1.74
2023-01-26T02:53:04.166Z,1.74
2023-01-26T02:58:12.556Z,1.74
2023-01-26T03:03:25.586Z,1.74
2023-01-26T03:08:33.333Z,1.73
2023-01-26T03:13:41.581Z,1.73
2023-01-26T03:19:07.062Z,1.73
2023-01-26T03:24:34.344Z,1.72
2023-01-26T03:29:45.008Z,1.71
2023-01-26T03:34:52.707Z,1.71
2023-01-26T03:40:18.286Z,1.71
2023-01-26T03:45:45.874Z,1.71
2023-01-26T03:51:11.791Z,1.70
2023-01-26T03:56:25.188Z,1.71
2023-01-26T04:01:38.949Z,1.71
2023-01-26T04:07:06.073Z,1.71
2023-01-26T04:12:14.600Z,1.71
2023-01-26T04:17:55.689Z,1.70
2023-01-26T04:23:03.101Z,1.71
2023-01-26T04:28:11.486Z,1.70
2023-01-26T04:33:20.908Z,1.71
2023-01-26T04:38:29.671Z,1.71
2023-01-26T04:43:38.821Z,1.71
2023-01-26T04:48:47.854Z,1.70
2023-01-26T04:53:56.540Z,1.70
2023-01-26T04:59:08.112Z,1.70
2023-01-26T05:04:19.136Z,1.69
2023-01-26T05:09:28.339Z,1.68
2023-01-26T05:14:54.305Z,1.68
2023-01-26T05:20:15.541Z,1.68
2023-01-26T05:25:42.002Z,1.68
2023-01-26T05:30:55.769Z,1.69
2023-01-26T05:36:08.234Z,1.69
2023-01-26T05:41:17.360Z,1.69
2023-01-26T05:46:37.409Z,1.71
2023-01-26T05:51:46.651Z,1.70
2023-01-26T05:56:55.746Z,1.70
2023-01-26T06:02:07.154Z,1.71
2023-01-26T06:07:17.691Z,1.71
2023-01-26T06:12:39.010Z,1.70
2023-01-26T06:17:59.558Z,1.71
2023-01-26T06:23:13.158Z,1.72
2023-01-26T06:28:21.920Z,1.72
2023-01-26T06:33:30.272Z,1.74
2023-01-26T06:38:39.019Z,1.74
2023-01-26T06:43:49.819Z,1.75
2023-01-26T06:48:58.071Z,1.76
2023-01-26T06:54:06.593Z,1.76
2023-01-26T06:59:22.612Z,1.78
2023-01-26T07:05:05.033Z,1.78
2023-01-26T07:10:15.975Z,1.79
2023-01-26T07:15:24.472Z,1.80
2023-01-26T07:20:32.706Z,1.82
2023-01-26T07:25:45.088Z,1.82
2023-01-26T07:30:54.146Z,1.84
2023-01-26T07:36:02.723Z,1.85
2023-01-26T07:41:14.259Z,1.87
2023-01-26T07:46:23.582Z,1.89
2023-01-26T07:51:32.254Z,1.92
2023-01-26T07:56:41.329Z,1.93
2023-01-26T08:01:51.279Z,1.96
2023-01-26T08:06:59.900Z,1.97
2023-01-26T08:12:09.913Z,1.98
2023-01-26T08:17:19.477Z,2.00
2023-01-26T08:22:27.837Z,2.03
2023-01-26T08:27:36.308Z,2.05
2023-01-26T08:32:45.493Z,2.08
2023-01-26T08:37:52.999Z,2.11
2023-01-26T08:43:04.174Z,2.15
2023-01-26T08:48:13.215Z,2.20
2023-01-26T08:53:21.397Z,2.23
2023-01-26T08:58:30.752Z,2.28
2023-01-26T09:03:38.239Z,2.32
2023-01-26T09:08:47.045Z,2.36
2023-01-26T09:13:57.249Z,2.40
2023-01-26T09:19:05.673Z,2.43
2023-01-26T09:24:14.957Z,2.47
2023-01-26T09:29:23.836Z,2.51
2023-01-26T09:34:33.327Z,2.53
2023-01-26T09:39:41.669Z,2.57
2023-01-26T09:45:02.440Z,2.59
2023-01-26T09:50:16.255Z,2.62
2023-01-26T09:55:26.037Z,2.65
2023-01-26T10:00:38.660Z,2.66
2023-01-26T10:05:51.609Z,2.70
2023-01-26T10:11:28.717Z,2.72
2023-01-26T10:16:38.418Z,2.74
2023-01-26T10:21:51.145Z,2.75
2023-01-26T10:27:01.594Z,2.77
2023-01-26T10:32:14.924Z,2.79
2023-01-26T10:37:28.758Z,2.80
2023-01-26T10:42:39.296Z,2.82
2023-01-26T10:48:04.407Z,2.83
2023-01-26T10:53:19.516Z,2.85
2023-01-26T10:58:51.411Z,2.87
2023-01-26T11:04:09.521Z,2.89
2023-01-26T11:09:24.917Z,2.90
2023-01-26T11:14:35.348Z,2.93
2023-01-26T11:19:56.838Z,2.94
2023-01-26T11:25:18.767Z,2.96
2023-01-26T11:30:58.546Z,2.97
2023-01-26T11:36:16.094Z,2.99
2023-01-26T11:41:42.481Z,3.01
2023-01-26T11:47:09.806Z,3.02
2023-01-26T11:52:28.605Z,3.04
2023-01-26T11:57:45.576Z,3.05
2023-01-26T12:03:03.296Z,3.07
2023-01-26T12:08:22.774Z,3.08
2023-01-26T12:13:41.504Z,3.10
2023-01-26T12:19:10.170Z,3.10
2023-01-26T12:24:54.130Z,3.11
2023-01-26T12:30:03.149Z,3.12
2023-01-26T12:35:16.101Z,3.14
2023-01-26T12:40:36.191Z,3.15
2023-01-26T12:45:49.254Z,3.17
2023-01-26T12:51:04.006Z,3.17
2023-01-26T12:56:22.960Z,3.18
2023-01-26T13:01:40.360Z,3.19
2023-01-26T13:07:04.753Z,3.20
2023-01-26T13:12:50.104Z,3.22
2023-01-26T13:18:09.278Z,3.23
2023-01-26T13:23:44.273Z,3.25
2023-01-26T13:28:55.057Z,3.26
2023-01-26T13:34:11.351Z,3.27
2023-01-26T13:39:30.232Z,3.29
2023-01-26T13:44:45.823Z,3.30
2023-01-26T13:49:56.917Z,3.32
2023-01-26T13:55:16.159Z,3.32
2023-01-26T14:00:25.728Z,3.34
2023-01-26T14:05:36.449Z,3.34
2023-01-26T14:10:47.982Z,3.35
2023-01-26T14:16:04.979Z,3.36
2023-01-26T14:21:22.436Z,3.37
2023-01-26T14:26:34.741Z,3.36
2023-01-26T14:31:43.613Z,3.37
2023-01-26T14:37:06.536Z,3.38
2023-01-26T14:42:17.751Z,3.38
2023-01-26T14:47:31.819Z,3.39
2023-01-26T14:52:41.922Z,3.40
2023-01-26T14:57:54.695Z,3.40
2023-01-26T15:03:08.496Z,3.40
2023-01-26T15:08:26.069Z,3.39
2023-01-26T15:13:35.630Z,3.40
2023-01-26T15:18:44.403Z,3.40
2023-01-26T15:23:56.772Z,3.40
2023-01-26T15:29:08.858Z,3.40
2023-01-26T15:34:34.398Z,3.41
2023-01-26T15:39:42.211Z,3.41
2023-01-26T15:44:50.647Z,3.41
2023-01-26T15:49:59.516Z,3.42
2023-01-26T15:55:23.579Z,3.43
2023-01-26T16:00:32.488Z,3.43
2023-01-26T16:05:40.664Z,3.44
2023-01-26T16:10:49.541Z,3.45
2023-01-26T16:15:58.445Z,3.46
2023-01-26T16:21:18.604Z,3.46
2023-01-26T16:26:27.255Z,3.47
2023-01-26T16:31:37.594Z,3.48
2023-01-26T16:36:46.912Z,3.49
2023-01-26T16:41:55.875Z,3.51
2023-01-26T16:47:06.101Z,3.51
2023-01-26T16:52:14.664Z,3.52
2023-01-26T16:57:23.074Z,3.53
2023-01-26T17:02:36.420Z,3.55
2023-01-26T17:07:45.611Z,3.55
2023-01-26T17:12:54.007Z,3.56
2023-01-26T17:18:02.750Z,3.56
2023-01-26T17:23:11.641Z,3.57
2023-01-26T17:28:19.685Z,3.57
2023-01-26T17:33:28.344Z,3.59
2023-01-26T17:38:37.819Z,3.59
2023-01-26T17:43:46.651Z,3.59
2023-01-26T17:48:57.021Z,3.60
2023-01-26T17:54:06.271Z,3.61
2023-01-26T17:59:14.641Z,3.61
2023-01-26T18:04:24.260Z,3.62
2023-01-26T18:09:35.042Z,3.62
2023-01-26T18:14:43.851Z,3.63
2023-01-26T18:19:52.612Z,3.63
2023-01-26T18:25:00.883Z,3.64
2023-01-26T18:30:10.826Z,3.64
2023-01-26T18:35:20.310Z,3.65
2023-01-26T18:40:31.178Z,3.66
2023-01-26T18:45:42.519Z,3.65
2023-01-26T18:50:53.834Z,3.67
2023-01-26T18:56:08.168Z,3.67
2023-01-26T19:01:19.240Z,3.67
2023-01-26T19:06:29.012Z,3.67
2023-01-26T19:11:38.207Z,3.69
2023-01-26T19:16:49.575Z,3.69
2023-01-26T19:21:57.916Z,3.70
2023-01-26T19:27:07.298Z,3.69
2023-01-26T19:32:15.773Z,3.70
2023-01-26T19:37:24.497Z,3.70
2023-01-26T19:42:32.458Z,3.70
2023-01-26T19:47:41.485Z,3.70
2023-01-26T19:52:49.346Z,3.71
2023-01-26T19:57:56.800Z,3.72
2023-01-26T20:03:04.404Z,3.72
2023-01-26T20:08:11.731Z,3.72
2023-01-26T20:13:20.990Z,3.73
2023-01-26T20:18:29.842Z,3.74
2023-01-26T20:23:45.604Z,3.74
2023-01-26T20:29:01.658Z,3.75
2023-01-26T20:34:11.007Z,3.76
2023-01-26T20:39:27.053Z,3.77
2023-01-26T20:44:37.918Z,3.78
2023-01-26T20:49:46.453Z,3.79
2023-01-26T20:54:55.488Z,3.81
2023-01-26T21:00:04.674Z,3.82
2023-01-26T21:05:15.356Z,3.83
2023-01-26T21:10:23.643Z,3.84
2023-01-26T21:15:34.784Z,3.86
2023-01-26T21:20:42.985Z,3.87
2023-01-26T21:25:50.619Z,3.88
2023-01-26T21:31:05.050Z,3.89
2023-01-26T21:36:16.011Z,3.90
2023-01-26T21:41:44.376Z,3.90
2023-01-26T21:46:53.354Z,3.92
2023-01-26T21:52:18.377Z,3.93
2023-01-26T21:57:45.817Z,3.94
2023-01-26T22:02:54.798Z,3.94
2023-01-26T22:08:02.481Z,3.95
2023-01-26T22:13:10.715Z,3.95
2023-01-26T22:18:19.770Z,3.96
2023-01-26T22:23:28.655Z,3.96
2023-01-26T22:28:37.353Z,3.96
2023-01-26T22:33:45.590Z,3.96
2023-01-26T22:38:54.201Z,3.97
2023-01-26T22:44:03.724Z,3.97
2023-01-26T22:49:11.980Z,3.97
2023-01-26T22:54:20.241Z,3.97
2023-01-26T22:59:28.906Z,3.98
2023-01-26T23:04:37.959Z,3.97
2023-01-26T23:09:46.424Z,3.97
2023-01-26T23:14:54.670Z,3.96
2023-01-26T23:20:02.375Z,3.96
2023-01-26T23:25:30.145Z,3.97
2023-01-26T23:30:38.383Z,3.97
2023-01-26T23:35:46.835Z,3.96
2023-01-26T23:40:56.256Z,3.96
2023-01-26T23:46:05.276Z,3.95
2023-01-26T23:51:14.456Z,3.94
2023-01-26T23:56:22.878Z,3.94
